Brushy Prairie, Indiana
Current Conditions -  °F | °C
As of 2:15 AM on Friday 19 Dec 2014 (Local Time) from KIRS Reporting Station
Overcast Overcast  
Wind Chill: 18°   Ceiling: 2800
Heat Index: 27°   Visibility: 7mi
Dew Point: 25°   Wind: 8mph
Humidity: 93%   Direction: 250°WSW
Pressure: 30.2"   Gusts: NA
Location:  41.6561°N, 85.3683°W
Report Text: KIRS 190715Z AUTO 25007KT 7SM SCT020 OVC028 M03/M04 A3020 RMK AO2
Loading
Personal Weather Stations






























Interactive Weather Map New forecast layout! Learn more

10-Day Weather Forecast

Advertisements
Track Severe Weather on mobile